createdAt,value
2018-05-13T00:00:11.482Z,19.30
2018-05-13T00:02:37.686Z,19.30
2018-05-13T00:05:04.979Z,19.30
2018-05-13T00:07:31.201Z,19.30
2018-05-13T00:09:58.878Z,19.30
2018-05-13T00:12:26.167Z,19.30
2018-05-13T00:14:52.340Z,19.30
2018-05-13T00:17:18.547Z,19.30
2018-05-13T00:19:44.813Z,19.40
2018-05-13T00:22:11.602Z,19.30
2018-05-13T00:24:37.825Z,19.30
2018-05-13T00:27:04.041Z,19.20
2018-05-13T00:29:30.228Z,19.20
2018-05-13T00:31:56.522Z,19.20
2018-05-13T00:34:22.722Z,19.30
2018-05-13T00:39:16.957Z,19.20
2018-05-13T00:41:43.152Z,19.30
2018-05-13T00:44:09.323Z,19.10
2018-05-13T00:46:36.641Z,19.00
2018-05-13T00:49:02.842Z,19.00
2018-05-13T00:51:30.148Z,19.00
2018-05-13T00:53:56.341Z,18.90
2018-05-13T00:58:50.432Z,18.80
2018-05-13T01:01:16.663Z,19.00
2018-05-13T01:03:42.843Z,18.90
2018-05-13T01:06:10.144Z,18.90
2018-05-13T01:08:36.333Z,18.90
2018-05-13T01:11:02.527Z,18.80
2018-05-13T01:13:28.698Z,18.80
2018-05-13T01:15:54.895Z,18.90
2018-05-13T01:18:21.058Z,18.90
2018-05-13T01:20:47.274Z,18.90
2018-05-13T01:23:13.475Z,18.90
2018-05-13T01:25:39.643Z,18.90
2018-05-13T01:28:06.923Z,18.80
2018-05-13T01:30:33.110Z,18.70
2018-05-13T01:32:59.299Z,18.70
2018-05-13T01:35:25.461Z,18.80
2018-05-13T01:37:51.679Z,18.80
2018-05-13T01:42:45.770Z,18.60
2018-05-13T01:45:11.985Z,18.60
2018-05-13T01:47:38.154Z,18.70
2018-05-13T01:50:04.366Z,18.80
2018-05-13T01:52:30.602Z,18.70
2018-05-13T01:54:56.802Z,18.60
2018-05-13T01:57:24.070Z,18.50
2018-05-13T01:59:51.382Z,18.60
2018-05-13T02:02:17.575Z,18.50
2018-05-13T02:07:11.918Z,18.40
2018-05-13T02:09:38.093Z,18.40
2018-05-13T02:12:04.280Z,18.20
2018-05-13T02:14:30.487Z,18.10
2018-05-13T02:16:56.656Z,18.20
2018-05-13T02:19:23.951Z,18.20
2018-05-13T02:21:50.229Z,18.10
2018-05-13T02:24:17.447Z,18.20
2018-05-13T02:26:43.619Z,18.20
2018-05-13T02:29:09.889Z,18.00
2018-05-13T02:31:36.091Z,18.10
2018-05-13T02:34:02.296Z,18.00
2018-05-13T02:36:29.604Z,18.10
2018-05-13T02:38:55.799Z,18.10
2018-05-13T02:41:23.114Z,18.00
2018-05-13T02:43:49.302Z,18.00
2018-05-13T02:46:16.588Z,18.00
2018-05-13T02:48:42.760Z,18.00
2018-05-13T02:51:08.955Z,18.00
2018-05-13T02:53:36.283Z,18.00
2018-05-13T02:56:02.505Z,18.00
2018-05-13T02:58:28.702Z,17.90
2018-05-13T03:00:56.029Z,18.00
2018-05-13T03:03:22.220Z,18.00
2018-05-13T03:05:49.559Z,18.00
2018-05-13T03:08:15.746Z,18.00
2018-05-13T03:10:41.932Z,17.90
2018-05-13T03:13:08.126Z,17.90
2018-05-13T03:15:34.358Z,17.70
2018-05-13T03:18:00.550Z,17.70
2018-05-13T03:20:26.734Z,17.60
2018-05-13T03:22:52.910Z,17.60
2018-05-13T03:25:19.394Z,17.70
2018-05-13T03:27:45.617Z,17.60
2018-05-13T03:30:11.806Z,17.60
2018-05-13T03:35:05.964Z,17.60
2018-05-13T03:37:32.268Z,17.70
2018-05-13T03:39:59.568Z,17.80
2018-05-13T03:42:25.814Z,17.80
2018-05-13T03:44:51.983Z,17.70
2018-05-13T03:47:18.155Z,17.80
2018-05-13T03:52:12.275Z,17.90
2018-05-13T03:54:39.586Z,17.90
2018-05-13T03:57:05.767Z,17.90
2018-05-13T03:59:31.986Z,17.80
2018-05-13T04:01:58.180Z,18.00
2018-05-13T04:04:24.351Z,18.00
2018-05-13T04:06:50.550Z,18.00
2018-05-13T04:12:04.132Z,18.10
2018-05-13T04:14:42.432Z,18.00
2018-05-13T04:17:08.611Z,18.00
2018-05-13T04:19:34.783Z,18.00
2018-05-13T04:22:00.967Z,18.10
2018-05-13T04:24:28.278Z,18.20
2018-05-13T04:26:54.441Z,18.20
2018-05-13T04:29:21.047Z,18.20
2018-05-13T04:31:47.224Z,18.20
2018-05-13T04:34:13.390Z,18.10
2018-05-13T04:36:39.607Z,18.20
2018-05-13T04:39:05.834Z,18.20
2018-05-13T04:41:32.054Z,18.20
2018-05-13T04:43:58.227Z,18.20
2018-05-13T04:46:24.438Z,18.20
2018-05-13T04:48:50.635Z,18.10
2018-05-13T04:51:16.830Z,18.20
2018-05-13T04:53:43.038Z,18.30
2018-05-13T04:58:37.151Z,18.30
2018-05-13T05:01:05.340Z,18.40
2018-05-13T05:03:31.598Z,18.30
2018-05-13T05:05:57.797Z,18.40
2018-05-13T05:08:24.007Z,18.30
2018-05-13T05:10:50.196Z,18.40
2018-05-13T05:13:17.499Z,18.50
2018-05-13T05:15:43.743Z,18.50
2018-05-13T05:18:09.968Z,18.40
2018-05-13T05:20:36.149Z,18.50
2018-05-13T05:23:02.420Z,18.30
2018-05-13T05:25:28.542Z,18.30
2018-05-13T05:27:54.717Z,18.40
2018-05-13T05:30:22.015Z,18.40
2018-05-13T05:32:48.200Z,18.40
2018-05-13T05:35:14.541Z,18.40
2018-05-13T05:37:40.755Z,18.30
2018-05-13T05:40:07.017Z,18.30
2018-05-13T05:42:34.346Z,18.50
2018-05-13T05:45:00.517Z,18.30
2018-05-13T05:47:26.694Z,18.50
2018-05-13T05:49:53.980Z,18.60
2018-05-13T05:52:20.164Z,18.60
2018-05-13T05:54:46.602Z,18.60
2018-05-13T05:57:12.793Z,18.60
2018-05-13T05:59:40.293Z,18.80
2018-05-13T06:02:06.550Z,18.80
2018-05-13T06:04:32.739Z,18.70
2018-05-13T06:09:26.935Z,19.00
2018-05-13T06:11:53.430Z,19.00
2018-05-13T06:14:19.712Z,19.00
2018-05-13T06:16:45.951Z,18.90
2018-05-13T06:19:12.148Z,19.00
2018-05-13T06:24:06.310Z,19.30
2018-05-13T06:26:32.482Z,19.50
2018-05-13T06:28:58.671Z,19.60
2018-05-13T06:31:24.994Z,19.70
2018-05-13T06:33:52.279Z,20.00
2018-05-13T06:36:18.488Z,20.00
2018-05-13T06:38:44.667Z,20.00
2018-05-13T06:41:10.874Z,20.10
2018-05-13T06:43:38.174Z,20.30
2018-05-13T06:46:04.447Z,20.30
2018-05-13T06:48:30.644Z,20.30
2018-05-13T06:50:56.971Z,20.40
2018-05-13T06:53:23.582Z,20.40
2018-05-13T06:55:49.986Z,20.40
2018-05-13T06:58:16.241Z,20.40
2018-05-13T07:00:42.685Z,20.50
2018-05-13T07:03:09.434Z,20.60
2018-05-13T07:05:35.939Z,20.70
2018-05-13T07:08:02.437Z,20.70
2018-05-13T07:10:29.050Z,20.60
2018-05-13T07:12:55.872Z,20.60
2018-05-13T07:15:22.263Z,20.50
2018-05-13T07:17:48.785Z,20.40
2018-05-13T07:20:16.073Z,20.30
2018-05-13T07:22:42.345Z,20.10
2018-05-13T07:25:14.711Z,20.10
2018-05-13T07:27:42.655Z,20.10
2018-05-13T07:30:09.520Z,20.10
2018-05-13T07:32:36.192Z,20.00
2018-05-13T07:35:02.443Z,20.10
2018-05-13T07:37:30.118Z,20.50
2018-05-13T07:42:26.875Z,20.90
2018-05-13T07:44:57.242Z,21.00
2018-05-13T07:47:23.567Z,21.10
2018-05-13T07:49:49.832Z,21.10
2018-05-13T07:52:17.412Z,21.20
2018-05-13T07:54:44.048Z,21.20
2018-05-13T07:57:11.479Z,21.90
2018-05-13T07:59:37.679Z,21.80
2018-05-13T08:02:03.956Z,21.80
2018-05-13T08:04:30.234Z,21.50
2018-05-13T08:06:56.903Z,21.50
2018-05-13T08:09:24.224Z,21.70
2018-05-13T08:11:50.737Z,21.70
2018-05-13T08:14:17.200Z,21.70
2018-05-13T08:16:43.557Z,21.50
2018-05-13T08:19:09.788Z,21.70
2018-05-13T08:21:36.069Z,21.60
2018-05-13T08:24:02.302Z,21.60
2018-05-13T08:26:28.535Z,21.80
2018-05-13T08:28:54.755Z,21.50
2018-05-13T08:31:22.081Z,21.50
2018-05-13T08:33:48.370Z,22.00
2018-05-13T08:36:14.673Z,22.20
2018-05-13T08:38:42.083Z,22.30
2018-05-13T08:41:08.574Z,22.30
2018-05-13T08:43:34.849Z,22.70
2018-05-13T08:46:02.573Z,23.10
2018-05-13T08:48:28.957Z,23.10
2018-05-13T08:50:55.172Z,23.20
2018-05-13T08:53:21.390Z,23.30
2018-05-13T08:55:47.740Z,23.70
2018-05-13T08:58:14.004Z,22.90
2018-05-13T09:00:40.275Z,22.60
2018-05-13T09:03:06.632Z,22.50
2018-05-13T09:05:32.971Z,22.00
2018-05-13T09:07:59.261Z,21.90
2018-05-13T09:10:25.506Z,21.80
2018-05-13T09:12:51.721Z,21.80
2018-05-13T09:15:18.040Z,22.70
2018-05-13T09:17:44.249Z,22.60
2018-05-13T09:20:10.508Z,23.10
2018-05-13T09:22:38.299Z,23.80
2018-05-13T09:25:04.557Z,23.90
2018-05-13T09:27:30.774Z,23.60
2018-05-13T09:29:58.167Z,23.30
2018-05-13T09:32:24.346Z,23.20
2018-05-13T09:34:50.586Z,23.00
2018-05-13T09:37:16.789Z,23.10
2018-05-13T09:39:43.056Z,23.10
2018-05-13T09:42:09.246Z,23.40
2018-05-13T09:44:36.540Z,24.20
2018-05-13T09:47:02.817Z,24.20
2018-05-13T09:49:28.990Z,24.30
2018-05-13T09:51:56.284Z,24.10
2018-05-13T09:54:22.500Z,24.10
2018-05-13T09:56:48.685Z,24.70
2018-05-13T09:59:14.897Z,25.20
2018-05-13T10:01:41.099Z,25.20
2018-05-13T10:04:07.351Z,25.70
2018-05-13T10:06:33.569Z,26.20
2018-05-13T10:08:59.790Z,26.40
2018-05-13T10:11:26.102Z,25.30
2018-05-13T10:16:20.326Z,24.80
2018-05-13T10:18:46.647Z,24.90
2018-05-13T10:21:12.831Z,25.00
2018-05-13T10:23:39.107Z,25.00
2018-05-13T10:26:05.317Z,24.40
2018-05-13T10:28:31.574Z,24.10
2018-05-13T10:30:58.054Z,24.40
2018-05-13T10:33:24.374Z,25.30
2018-05-13T10:35:50.607Z,25.80
2018-05-13T10:38:16.872Z,25.80
2018-05-13T10:40:43.419Z,26.20
2018-05-13T10:43:09.730Z,26.20
2018-05-13T10:45:36.449Z,25.70
2018-05-13T10:48:03.591Z,25.90
2018-05-13T10:50:30.084Z,25.90
2018-05-13T10:52:56.743Z,25.80
2018-05-13T10:55:23.090Z,25.70
2018-05-13T10:57:49.448Z,25.20
2018-05-13T11:00:15.771Z,24.90
2018-05-13T11:02:42.948Z,25.30
2018-05-13T11:05:09.717Z,25.40
2018-05-13T11:07:36.759Z,25.80
2018-05-13T11:10:03.455Z,25.90
2018-05-13T11:12:30.571Z,26.30
2018-05-13T11:14:56.970Z,26.30
2018-05-13T11:17:23.427Z,26.30
2018-05-13T11:19:49.958Z,26.10
2018-05-13T11:22:17.126Z,26.00
2018-05-13T11:24:43.386Z,25.90
2018-05-13T11:27:10.807Z,26.90
2018-05-13T11:29:37.016Z,26.90
2018-05-13T11:32:03.349Z,27.10
2018-05-13T11:34:29.754Z,26.90
2018-05-13T11:36:57.290Z,26.10
2018-05-13T11:39:24.363Z,26.10
2018-05-13T11:41:51.478Z,25.50
2018-05-13T11:44:17.760Z,25.40
2018-05-13T11:46:44.471Z,25.50
2018-05-13T11:49:10.743Z,25.70
2018-05-13T11:51:37.122Z,25.90
2018-05-13T11:54:03.428Z,25.70
2018-05-13T11:56:29.732Z,25.30
2018-05-13T11:58:55.887Z,25.00
2018-05-13T12:01:22.250Z,25.20
2018-05-13T12:03:48.711Z,25.20
2018-05-13T12:06:15.245Z,25.10
2018-05-13T12:08:43.444Z,25.40
2018-05-13T12:11:12.170Z,25.90
2018-05-13T12:13:39.716Z,26.60
2018-05-13T12:16:05.955Z,26.90
2018-05-13T12:18:32.149Z,27.60
2018-05-13T12:20:58.644Z,27.80
2018-05-13T12:23:24.929Z,27.50
2018-05-13T12:25:51.335Z,27.60
2018-05-13T12:28:17.689Z,27.90
2018-05-13T12:30:43.955Z,27.90
2018-05-13T12:33:10.469Z,28.40
2018-05-13T12:35:37.524Z,28.30
2018-05-13T12:38:03.773Z,28.70
2018-05-13T12:40:33.659Z,29.10
2018-05-13T12:43:01.043Z,29.40
2018-05-13T12:45:27.991Z,30.00
2018-05-13T12:47:55.928Z,30.30
2018-05-13T12:50:22.388Z,30.20
2018-05-13T12:52:48.823Z,30.90
2018-05-13T12:55:15.128Z,31.10
2018-05-13T13:00:09.722Z,31.10
2018-05-13T13:02:36.236Z,30.30
2018-05-13T13:05:02.681Z,30.70
2018-05-13T13:07:29.011Z,31.30
2018-05-13T13:09:55.371Z,32.00
2018-05-13T13:12:21.662Z,31.50
2018-05-13T13:14:48.083Z,31.10
2018-05-13T13:17:14.399Z,30.60
2018-05-13T13:19:40.710Z,29.10
2018-05-13T13:22:07.315Z,28.40
2018-05-13T13:24:33.748Z,27.60
2018-05-13T13:27:00.285Z,26.80
2018-05-13T13:29:26.635Z,26.00
2018-05-13T13:31:53.013Z,25.70
2018-05-13T13:34:19.299Z,25.70
2018-05-13T13:36:45.589Z,25.40
2018-05-13T13:39:12.001Z,25.30
2018-05-13T13:41:38.413Z,25.00
2018-05-13T13:46:32.766Z,24.60
2018-05-13T13:48:59.011Z,24.30
2018-05-13T13:51:25.175Z,24.30
2018-05-13T13:53:51.780Z,24.30
2018-05-13T13:56:18.169Z,24.00
2018-05-13T13:58:44.754Z,24.10
2018-05-13T14:01:12.439Z,25.20
2018-05-13T14:03:38.931Z,25.20
2018-05-13T14:06:05.127Z,25.30
2018-05-13T14:08:31.399Z,25.50
2018-05-13T14:10:58.330Z,25.90
2018-05-13T14:13:24.614Z,26.10
2018-05-13T14:15:52.516Z,26.20
2018-05-13T14:18:20.649Z,25.70
2018-05-13T14:20:47.388Z,25.70
2018-05-13T14:23:14.087Z,25.10
2018-05-13T14:25:40.514Z,24.40
2018-05-13T14:28:08.444Z,24.00
2018-05-13T14:30:35.381Z,23.60
2018-05-13T14:33:02.515Z,23.70
2018-05-13T14:35:28.755Z,23.60
2018-05-13T14:37:56.104Z,24.00
2018-05-13T14:40:22.495Z,24.00
2018-05-13T14:42:48.726Z,23.60
2018-05-13T14:45:16.301Z,23.70
2018-05-13T14:47:42.542Z,23.80
2018-05-13T14:50:09.040Z,23.50
2018-05-13T14:52:35.833Z,23.60
2018-05-13T14:55:02.336Z,23.70
2018-05-13T14:57:28.761Z,23.80
2018-05-13T14:59:54.965Z,24.10
2018-05-13T15:02:22.256Z,24.50
2018-05-13T15:04:48.742Z,24.60
2018-05-13T15:07:36.926Z,24.50
2018-05-13T15:10:04.595Z,24.50
2018-05-13T15:12:30.879Z,24.50
2018-05-13T15:14:58.287Z,24.60
2018-05-13T15:17:24.762Z,24.20
2018-05-13T15:19:52.178Z,23.50
2018-05-13T15:22:18.448Z,23.40
2018-05-13T15:24:44.867Z,23.20
2018-05-13T15:27:11.255Z,22.90
2018-05-13T15:29:37.653Z,22.70
2018-05-13T15:32:04.013Z,22.30
2018-05-13T15:34:30.589Z,22.20
2018-05-13T15:36:58.719Z,22.30
2018-05-13T15:39:24.883Z,22.20
2018-05-13T15:41:51.113Z,22.30
2018-05-13T15:44:17.292Z,22.20
2018-05-13T15:46:43.517Z,22.10
2018-05-13T15:49:09.761Z,22.20
2018-05-13T15:51:36.995Z,22.30
2018-05-13T15:54:03.274Z,22.30
2018-05-13T15:56:29.514Z,22.30
2018-05-13T15:58:59.828Z,22.10
2018-05-13T16:04:08.125Z,22.10
2018-05-13T16:06:37.733Z,22.10
2018-05-13T16:09:11.807Z,21.90
2018-05-13T16:11:40.758Z,21.90
2018-05-13T16:14:11.071Z,21.80
2018-05-13T16:16:40.231Z,21.60
2018-05-13T16:19:08.119Z,21.60
2018-05-13T16:24:06.548Z,21.80
2018-05-13T16:26:34.700Z,21.80
2018-05-13T16:29:01.000Z,21.80
2018-05-13T16:31:27.406Z,21.80
2018-05-13T16:33:53.595Z,21.90
2018-05-13T16:36:19.878Z,21.70
2018-05-13T16:38:46.102Z,21.60
2018-05-13T16:41:12.310Z,21.70
2018-05-13T16:43:39.606Z,21.50
2018-05-13T16:46:05.771Z,21.40
2018-05-13T16:48:31.974Z,21.50
2018-05-13T16:50:58.259Z,21.40
2018-05-13T16:53:24.437Z,21.40
2018-05-13T16:55:51.738Z,21.50
2018-05-13T16:58:17.927Z,21.50
2018-05-13T17:00:44.218Z,21.20
2018-05-13T17:03:10.407Z,21.10
2018-05-13T17:05:37.728Z,21.10
2018-05-13T17:08:03.968Z,21.10
2018-05-13T17:10:30.319Z,20.90
2018-05-13T17:12:56.961Z,20.70
2018-05-13T17:15:23.224Z,20.60
2018-05-13T17:17:49.393Z,20.50
2018-05-13T17:20:15.670Z,20.70
2018-05-13T17:22:41.994Z,20.60
2018-05-13T17:25:09.700Z,20.60
2018-05-13T17:27:35.938Z,20.70
2018-05-13T17:30:02.176Z,20.40
2018-05-13T18:54:24.744Z,20.30
2018-05-13T18:56:50.922Z,18.30
2018-05-13T18:59:17.163Z,18.40
2018-05-13T19:01:43.365Z,18.50
2018-05-13T19:04:09.561Z,18.40
2018-05-13T19:06:35.935Z,18.50
2018-05-13T19:09:02.160Z,18.50
2018-05-13T19:11:28.466Z,18.50
2018-05-13T19:13:54.640Z,18.40
2018-05-13T19:16:20.846Z,18.30
2018-05-13T19:18:47.033Z,18.40
2018-05-13T19:21:13.246Z,18.20
2018-05-13T19:23:39.466Z,18.30
2018-05-13T19:26:05.650Z,18.30
2018-05-13T19:28:31.853Z,18.30
2018-05-13T19:30:58.473Z,18.30
2018-05-13T19:33:24.575Z,18.30
2018-05-13T19:38:21.672Z,17.60
2018-05-13T19:40:47.935Z,18.30
2018-05-13T19:43:14.221Z,18.20
2018-05-13T19:45:40.510Z,18.30
2018-05-13T19:48:07.660Z,18.30
2018-05-13T19:50:33.953Z,18.10
2018-05-13T19:53:00.224Z,18.20
2018-05-13T19:55:26.520Z,18.20
2018-05-13T19:57:52.726Z,18.20
2018-05-13T20:00:18.937Z,18.30
2018-05-13T20:02:45.297Z,18.30
2018-05-13T20:05:11.842Z,18.30
2018-05-13T20:07:39.200Z,18.30
2018-05-13T20:10:06.551Z,18.30
2018-05-13T20:12:33.205Z,18.10
2018-05-13T20:14:59.538Z,18.20
2018-05-13T20:17:25.812Z,18.20
2018-05-13T20:19:54.138Z,18.20
2018-05-13T20:22:20.401Z,18.20
2018-05-13T20:24:47.726Z,18.30
2018-05-13T20:27:15.413Z,19.00
2018-05-13T20:29:43.622Z,18.20
2018-05-13T20:32:10.087Z,18.30
2018-05-13T20:34:36.707Z,18.20
2018-05-13T20:37:04.583Z,18.10
2018-05-13T20:39:31.138Z,18.10
2018-05-13T20:41:58.584Z,17.90
2018-05-13T20:44:26.220Z,18.00
2018-05-13T20:46:52.929Z,18.00
2018-05-13T20:49:19.570Z,18.10
2018-05-13T20:51:46.931Z,18.00
2018-05-13T20:54:14.227Z,17.90
2018-05-13T20:56:40.400Z,17.90
2018-05-13T20:59:06.602Z,17.60
2018-05-13T21:01:32.775Z,17.80
2018-05-13T21:03:59.311Z,17.60
2018-05-13T21:06:25.508Z,17.80
2018-05-13T21:08:52.873Z,17.90
2018-05-13T21:11:19.051Z,17.80
2018-05-13T21:13:45.365Z,17.80
2018-05-13T21:16:13.123Z,18.00
2018-05-13T21:18:39.365Z,17.90
2018-05-13T21:21:05.570Z,17.80
2018-05-13T21:23:31.747Z,17.80
2018-05-13T21:25:57.937Z,17.60
2018-05-13T21:28:24.161Z,17.70
2018-05-13T21:30:50.661Z,17.80
2018-05-13T21:33:16.828Z,17.80
2018-05-13T21:35:44.114Z,17.80
2018-05-13T21:38:10.348Z,17.70
2018-05-13T21:40:36.519Z,17.80
2018-05-13T21:43:02.731Z,18.00
2018-05-13T21:45:29.044Z,17.70
2018-05-13T21:47:55.219Z,17.80
2018-05-13T21:50:21.399Z,17.90
2018-05-13T21:52:47.581Z,17.80
2018-05-13T21:55:15.096Z,17.70
2018-05-13T21:57:41.306Z,17.60
2018-05-13T22:00:07.495Z,17.60
2018-05-13T22:02:33.693Z,17.60
2018-05-13T22:04:59.876Z,17.50
2018-05-13T22:07:26.063Z,17.60
2018-05-13T22:09:53.382Z,17.70
2018-05-13T22:12:19.554Z,17.70
2018-05-13T22:14:46.838Z,17.60
2018-05-13T22:17:13.035Z,17.50
2018-05-13T22:19:39.200Z,17.60
2018-05-13T22:22:06.487Z,17.70
2018-05-13T22:24:32.690Z,17.80
2018-05-13T22:26:58.866Z,17.90
2018-05-13T22:31:54.050Z,17.90
2018-05-13T22:34:20.223Z,17.80
2018-05-13T22:36:46.418Z,17.80
2018-05-13T22:39:12.593Z,17.60
2018-05-13T22:41:38.755Z,17.70
2018-05-13T22:44:06.369Z,17.50
2018-05-13T22:46:32.828Z,17.40
2018-05-13T22:48:59.000Z,17.40
2018-05-13T22:51:25.187Z,17.20
2018-05-13T22:53:51.362Z,17.20
2018-05-13T22:56:17.544Z,17.10
2018-05-13T22:58:44.822Z,17.30
2018-05-13T23:03:38.900Z,17.30
2018-05-13T23:06:05.086Z,17.30
2018-05-13T23:08:32.386Z,17.20
2018-05-13T23:10:58.590Z,17.20
2018-05-13T23:13:25.890Z,17.30
2018-05-13T23:15:52.062Z,17.30
2018-05-13T23:18:18.306Z,17.20
2018-05-13T23:20:44.502Z,17.30
2018-05-13T23:23:10.670Z,17.30
2018-05-13T23:25:36.867Z,17.30
2018-05-13T23:28:03.056Z,17.30
2018-05-13T23:30:29.298Z,17.30
2018-05-13T23:32:56.547Z,17.50
2018-05-13T23:35:22.711Z,17.40
2018-05-13T23:37:48.944Z,17.30
2018-05-13T23:40:15.128Z,17.40
2018-05-13T23:42:42.406Z,17.40
2018-05-13T23:45:08.602Z,17.30
2018-05-13T23:47:34.770Z,17.20
2018-05-13T23:50:02.090Z,17.30
2018-05-13T23:52:28.279Z,17.30
2018-05-13T23:54:54.432Z,17.30
2018-05-13T23:57:20.614Z,17.40
2018-05-13T23:59:46.788Z,17.40
